หน้าหลัก
METAR-TAF:

METAR-TAF

ท่าอากาศยาน :

รัฐปวยบลา, เม็กซิโก

ละติจูด: 19-03N, ลองจิจูด: 098-10W, ความสูง: 2179 ม.

การสังเกตสภาพอากาศปัจจุบัน

รายงานได้ทำขึ้นเมื่อ 8 ชั่วโมงและ 33 นาทีที่แล้ว ณ เวลา 01:41 UTC
ลม 13 นอตจากเหนือ/ตะวันออกเฉียงเหนือ
อุณหภูมิ 21°C
ความชื้น 43%
ความกดอากาศ 1020 hPa
ทัศนวิสัย: 19.3 กม.
มีเมฆกระจายเป็นบางส่วนที่ความสูง 2000 ฟุต

METAR: MMPB 170141Z 03013KT 12SM SCT020 21/08 A3013 RMK 8/200

เวลา: 05:14 (10:14 UTC)

การพยากรณ์

รายงานได้ทำขึ้นเมื่อ 5 ชั่วโมงและ 42 นาทีที่แล้ว ณ เวลา 04:32 UTC
การพยากรณ์มีผลตั้งแต่วันที่ 17 ณ เวลา 06 UTC จนถึงวันที่ 18 ณ เวลา 06 UTC
ลม 5 นอตจากเหนือ/ตะวันออกเฉียงเหนือ
ทัศนวิสัย: 10 กม.
มีเมฆกระจายเป็นบางส่วนที่ความสูง 8000 ฟุต
จาก 17 ณ เวลา 1800 UTC
ลม 10 นอตจากเหนือ/ตะวันออกเฉียงเหนือ
ทัศนวิสัย: 10 กม.
มีเมฆกระจายเป็นบางส่วนที่ความสูง 2000 ฟุต
มีเมฆกระจายเป็นบางส่วนที่ความสูง 20000 ฟุต
จาก 18 ณ เวลา 0300 UTC
ลม 5 นอตจากเหนือ/ตะวันออกเฉียงเหนือ
ทัศนวิสัย: 10 กม.
มีเมฆกระจายเป็นบางส่วนที่ความสูง 2000 ฟุต

TAF: MMPB 170432Z 1706/1806 02005KT P6SM SCT080 FM171800 03010KT P6SM SCT020 SCT200 FM180300 03005KT P6SM SCT020

สังเกตการณ์สภาพอากาศและพยากรณ์อากาศของสนามบินมากกว่า 4000 แห่ง (รายงาน METAR และ TAF).

สถานีที่ดูได้จะแสดงไว้ด้วยจุดสีเหลืองและสีแดงบนแผนที่.

เลื่อนเมาส์ไปเหนือจุดเพื่อดูชื่อสถานี.

แล้วคลิกเพื่อดูสังเกตการณ์และการพยากรณ์สภาพอากาศ.

ในการเปลี่ยนแผนที่: คลิกที่ปุ่มสีเขียวที่มีกากบาทสีดำเพื่อซูมเข้า; ที่ปุ่มสีเขียวที่มีขีดเพื่อซูมออก; หรือที่ลูกศรสีเขียวเพื่อไปยังแผนที่ที่อยู่ติดกัน.


METAR-TAF: